Manchester, Missouri
Current Conditions -  °F | °C
As of 4:54 PM on Wednesday 22 Oct 2014 (Local Time) from KSUS Reporting Station
Clear Clear  
Wind Chill: 62°   Ceiling: Unl
Heat Index: 62°   Visibility: 10mi
Dew Point: 42°   Wind: 8mph
Humidity: 48%   Direction: 90°E
Pressure: 30.21"   Gusts: NA
Location:  38.5691°N, 90.5462°W
Report Text: KSUS 222154Z 09007KT 10SM CLR 17/06 A3021 RMK AO2 SLP232 T01670056
Loading
Personal Weather Stations






























Interactive Weather Map
Tropical Storm Tracking
New forecast layout! Learn more

10-Day Weather Forecast

Advertisements
Track Severe Weather on mobile